Terminal Aerodrome Forecast
Issued by NWS

Home | Current Version | Previous Version | Graphics & Text | Print | Product List | Glossary On
Versions: 1 2 3 4 5 6 7 8 9 10 11 12 13 14 15 16 17 18 19 20 21 22 23 24 25 26 27 28
000
FTUS43 KGRB 221725
TAFRHI
TAF
KRHI 221725Z 2218/2318 18005KT P6SM SCT250
     FM222300 16004KT P6SM FEW140 SCT250
     FM230600 15005KT P6SM BKN080
     FM231200 16007KT P6SM SCT030 OVC060 PROB30 2312/2315 -SN BKN030
     FM231500 16011KT P6SM OVC060=

USA.gov is the U.S. government's official web portal to all federal, state and local government web resources and services.